• Join FlightAware (Why Join?)
  • Login
  • US Flag 
Trick or treat! (Boo!!) 
04:42AM EDT


 

Airport Tracker/Info


-or-


 

Live Flight TrackerFlight Track Log ✈ N960DL ✈ 10-Jun-2013 ✈ KCLT - KATL

Flight Track Log - Related Links

Times and Time Zones

All times are in EDT time to prevent confusion due to time zone crossing. See the N960DL flight status page for this flight to view local times or setup timezone preferences in your user account.

Time Position Orientation Groundspeed Altitude Reporting Facility
EDT Latitude Longitude Course Direction KTS MPH feet Rate Location/Type
07:47PM 35.1933 -80.9533 239° Southwest 150 173 1,800  Level Atlanta Center
07:48PM 35.1747 -80.9542 182° South 160 184 2,200 1,620 Climbing Atlanta Center
07:49PM 35.1147 -80.9742 195° South 256 295 4,200 2,520 Climbing Atlanta Center
07:49PM 35.1036 -81.0356 258° West 247 284 6,700 3,120 Climbing Atlanta Center
07:50PM 35.2595 -81.1736 282° West  Level FlightAware Approximate
07:50PM 35.1139 -81.1189 279° West 262 302 9,700  Level Atlanta Center
07:51PM 35.2365 -81.2871 242° Southwest  Level FlightAware Approximate
07:51PM 35.1181 -81.2100 273° West 269 310 11,600  Level Atlanta Center
07:52PM 35.1863 -81.3941 239° Southwest  Level FlightAware Approximate
07:52PM 35.1292 -81.3239 277° West 318 366 13,100  Level Atlanta Center
07:53PM 35.1378 -81.4406 275° West 360 414 15,000 2,100 Climbing Atlanta Center
07:54PM 35.1175 -81.5681 259° West 385 443 17,400 2,100 Climbing Atlanta Center
07:55PM 35.0867 -81.7011 254° West 400 460 19,200 1,800 Climbing Atlanta Center
07:56PM 35.0539 -81.8364 254° West 410 472 21,100 1,860 Climbing Atlanta Center
07:57PM 35.0228 -81.9742 255° West 421 484 23,000 1,920 Climbing Atlanta Center
07:58PM 34.9856 -82.1247 253° West 422 486 25,000 2,160 Climbing Atlanta Center
07:59PM 34.9564 -82.2547 255° West 416 479 27,400 1,500 Climbing Atlanta Center
08:00PM 34.9225 -82.3769 251° West 400 460 28,000 300 Climbing Atlanta Center
08:01PM 34.8908 -82.5067 253° West 399 459 28,000  Level Atlanta Center
08:02PM 34.8589 -82.6364 253° West 399 459 28,000 -360 Level Atlanta Center
08:03PM 34.8164 -82.7536 246° West 399 459 27,300 -1,140 Descending Atlanta Center
08:04PM 34.7467 -82.8608 232° Southwest 394 453 25,800 -1,380 Descending Atlanta Center
08:05PM 34.6767 -82.9628 230° Southwest 400 460 24,600 -1,200 Descending Atlanta Center
08:06PM 34.6064 -83.0647 230° Southwest 400 460 23,400 -1,260 Descending Atlanta Center
08:07PM 34.5383 -83.1611 229° Southwest 393 452 22,100 -1,500 Descending Atlanta Center
08:08PM 34.4722 -83.2653 232° Southwest 393 452 20,500 -1,560 Descending Atlanta Center
08:09PM 34.4081 -83.3642 232° Southwest 385 443 19,000 -1,440 Descending Atlanta Center
08:10PM 34.3500 -83.4525 231° Southwest 375 432 17,700 -1,620 Descending Atlanta Center
08:11PM 34.2836 -83.5461 229° Southwest 369 425 15,800 -1,800 Descending Atlanta Center
08:12PM 34.2214 -83.6369 230° Southwest 364 419 14,100 -1,800 Descending Atlanta Center
08:13PM 34.1633 -83.7250 231° Southwest 353 406 12,200 -1,080 Descending Atlanta Center
08:14PM 34.1072 -83.8131 232° Southwest 340 391 12,000 -540 Descending Atlanta Center
08:15PM 34.0500 -83.8833 226° Southwest 280 322 11,200 -1,260 Descending Atlanta TRACON
08:16PM 34.0000 -83.9500 228° Southwest 271 312 9,600 -1,140 Descending Atlanta TRACON
08:17PM 33.9167 -83.9667 189° South 299 344 9,100 -660 Descending Atlanta TRACON
08:18PM 33.8333 -83.9667 180° South 289 333 8,300 -600 Descending Atlanta TRACON
08:19PM 33.7667 -83.9667 180° South 293 337 7,900 -720 Descending Atlanta TRACON
08:20PM 33.6833 -83.9833 189° South 265 305 7,000 -900 Descending Atlanta TRACON
08:21PM 33.6419 -84.0389 228° Southwest 205 236 6,100 -720 Descending Atlanta Center
08:23PM 33.6333 -84.1833 266° West 218 251 4,800 -840 Descending Atlanta TRACON
08:24PM 33.6333 -84.2500 270° West 197 227 3,700 -1,140 Descending Atlanta TRACON